Time,TemperatureF,DewpointF,PressureIn,WindDirection,WindDirectionDegrees,WindSpeedMPH,WindSpeedGustMPH,Humidity,HourlyPrecipIn,Conditions,Clouds,dailyrainin,SolarRadiationWatts/m^2,SoftwareType,DateUTC
2013-02-24 00:21:00,55.0,46.0,-100.00,NE,38,6.0,12.0,71,0.00,,,0.97,0.000000,,2013-02-24 06:21:00,
2013-02-24 00:32:00,55.0,46.0,-100.00,NE,38,6.0,12.0,71,0.00,,,0.97,0.000000,,2013-02-24 06:32:00,
2013-02-24 00:42:00,55.0,46.0,-100.00,NE,38,6.0,12.0,71,0.00,,,0.97,0.000000,,2013-02-24 06:42:00,
2013-02-24 00:50:00,53.0,45.0,-100.00,NE,37,4.0,11.0,74,0.00,,,0.97,0.000000,,2013-02-24 06:50:00,
2013-02-24 01:21:00,53.0,45.0,-100.00,NE,37,4.0,11.0,74,0.00,,,0.97,0.000000,,2013-02-24 07:21:00,
2013-02-24 01:32:00,53.0,45.0,-100.00,NE,37,4.0,11.0,74,0.00,,,0.97,0.000000,,2013-02-24 07:32:00,
2013-02-24 01:42:00,53.0,45.0,-100.00,NE,37,4.0,11.0,74,0.00,,,0.97,0.000000,,2013-02-24 07:42:00,
2013-02-24 01:50:00,51.0,44.0,-100.00,NE,41,5.0,11.0,77,0.00,,,0.95,0.000000,,2013-02-24 07:50:00,
2013-02-24 02:11:00,51.0,44.0,-100.00,NE,41,5.0,11.0,77,0.00,,,0.95,0.000000,,2013-02-24 08:11:00,
2013-02-24 02:22:00,51.0,44.0,-100.00,NE,41,5.0,11.0,77,0.00,,,0.95,0.000000,,2013-02-24 08:22:00,
2013-02-24 02:31:00,51.0,44.0,-100.00,NE,41,5.0,11.0,77,0.00,,,0.95,0.000000,,2013-02-24 08:31:00,
2013-02-24 02:42:00,51.0,44.0,-100.00,NE,41,5.0,11.0,77,0.00,,,0.95,0.000000,,2013-02-24 08:42:00,
2013-02-24 02:50:00,49.0,44.0,-100.00,NE,34,4.0,9.0,83,0.00,,,-99.99,0.000000,,2013-02-24 08:50:00,
2013-02-24 03:11:00,49.0,44.0,-100.00,NE,34,4.0,9.0,83,0.00,,,-99.99,0.000000,,2013-02-24 09:11:00,
2013-02-24 03:21:00,49.0,44.0,-100.00,NE,34,4.0,9.0,83,0.00,,,-99.99,0.000000,,2013-02-24 09:21:00,
2013-02-24 03:31:00,49.0,44.0,-100.00,NE,34,4.0,9.0,83,0.00,,,-99.99,0.000000,,2013-02-24 09:31:00,
2013-02-24 03:42:00,49.0,44.0,-100.00,NE,34,4.0,9.0,83,0.00,,,-99.99,0.000000,,2013-02-24 09:42:00,
2013-02-24 03:50:00,48.0,45.0,-100.00,NNE,23,3.0,7.0,88,0.00,,,0.36,0.000000,,2013-02-24 09:50:00,
2013-02-24 04:11:00,48.0,45.0,-100.00,NNE,23,3.0,7.0,88,0.00,,,0.36,0.000000,,2013-02-24 10:11:00,
2013-02-24 04:21:00,48.0,45.0,-100.00,NNE,23,3.0,7.0,88,0.00,,,0.36,0.000000,,2013-02-24 10:21:00,
2013-02-24 04:32:00,48.0,45.0,-100.00,NNE,23,3.0,7.0,88,0.00,,,0.36,0.000000,,2013-02-24 10:32:00,
2013-02-24 04:41:00,48.0,45.0,-100.00,NNE,23,3.0,7.0,88,0.00,,,0.36,0.000000,,2013-02-24 10:41:00,
2013-02-24 04:50:00,47.0,45.0,-100.00,NNE,25,3.0,6.0,91,0.00,,,-99.99,0.000000,,2013-02-24 10:50:00,
2013-02-24 05:11:00,47.0,45.0,-100.00,NNE,25,3.0,6.0,91,0.00,,,-99.99,0.000000,,2013-02-24 11:11:00,
2013-02-24 05:21:00,47.0,45.0,-100.00,NNE,25,3.0,6.0,91,0.00,,,-99.99,0.000000,,2013-02-24 11:21:00,
2013-02-24 05:32:00,47.0,45.0,-100.00,NNE,25,3.0,6.0,91,0.00,,,-99.99,0.000000,,2013-02-24 11:32:00,
2013-02-24 05:41:00,47.0,45.0,-100.00,NNE,25,3.0,6.0,91,0.00,,,-99.99,0.000000,,2013-02-24 11:41:00,
2013-02-24 05:50:00,46.0,44.0,-100.00,NNE,23,4.0,7.0,93,0.00,,,0.13,0.000000,,2013-02-24 11:50:00,
2013-02-24 06:11:00,46.0,44.0,-100.00,NNE,23,4.0,7.0,93,0.00,,,0.13,0.000000,,2013-02-24 12:11:00,
2013-02-24 06:22:00,46.0,44.0,-100.00,NNE,23,4.0,7.0,93,0.00,,,0.13,0.000000,,2013-02-24 12:22:00,
2013-02-24 06:32:00,46.0,44.0,-100.00,NNE,23,4.0,7.0,93,0.00,,,0.13,0.000000,,2013-02-24 12:32:00,
2013-02-24 06:46:00,46.0,44.0,-100.00,NNE,23,4.0,7.0,93,0.00,,,0.13,0.000000,,2013-02-24 12:46:00,
2013-02-24 07:17:00,46.0,44.0,-100.00,NNE,32,6.0,9.0,94,0.00,,,0.12,7.000000,,2013-02-24 13:17:00,
2013-02-24 07:26:00,46.0,44.0,-100.00,NNE,32,6.0,9.0,94,0.00,,,0.12,7.000000,,2013-02-24 13:26:00,
2013-02-24 07:34:00,46.0,44.0,-100.00,NNE,32,6.0,9.0,94,0.00,,,0.12,7.000000,,2013-02-24 13:34:00,
2013-02-24 07:44:00,46.0,44.0,-100.00,NNE,32,6.0,9.0,94,0.00,,,0.12,7.000000,,2013-02-24 13:44:00,
2013-02-24 07:50:00,51.0,47.0,-100.00,NE,48,5.0,10.0,86,0.00,,,0.12,159.000000,,2013-02-24 13:50:00,
2013-02-24 08:24:00,51.0,47.0,-100.00,NE,48,5.0,10.0,86,0.00,,,0.12,159.000000,,2013-02-24 14:24:00,
2013-02-24 08:34:00,51.0,47.0,-100.00,NE,48,5.0,10.0,86,0.00,,,0.12,159.000000,,2013-02-24 14:34:00,
2013-02-24 08:50:00,56.0,48.0,-100.00,NE,49,6.0,12.0,74,0.00,,,0.12,357.000000,,2013-02-24 14:50:00,
2013-02-24 09:13:00,56.0,48.0,-100.00,NE,49,6.0,12.0,74,0.00,,,0.12,357.000000,,2013-02-24 15:13:00,
2013-02-24 09:23:00,56.0,48.0,-100.00,NE,49,6.0,12.0,74,0.00,,,0.12,357.000000,,2013-02-24 15:23:00,
2013-02-24 09:32:00,56.0,48.0,-100.00,NE,49,6.0,12.0,74,0.00,,,0.12,357.000000,,2013-02-24 15:32:00,
2013-02-24 09:42:00,56.0,48.0,-100.00,NE,49,6.0,12.0,74,0.00,,,0.12,357.000000,,2013-02-24 15:42:00,
2013-02-24 10:50:00,64.0,51.0,-100.00,ENE,59,6.0,11.0,63,-99.99,,,0.12,694.000000,,2013-02-24 16:50:00,
2013-02-24 11:11:00,64.0,51.0,-100.00,ENE,59,6.0,11.0,63,-99.99,,,0.12,694.000000,,2013-02-24 17:11:00,
2013-02-24 11:21:00,64.0,51.0,-100.00,ENE,59,6.0,11.0,63,-99.99,,,0.12,694.000000,,2013-02-24 17:21:00,
2013-02-24 11:32:00,64.0,51.0,-100.00,ENE,59,6.0,11.0,63,-99.99,,,0.12,694.000000,,2013-02-24 17:32:00,
2013-02-24 11:42:00,64.0,51.0,-100.00,ENE,59,6.0,11.0,63,-99.99,,,0.12,694.000000,,2013-02-24 17:42:00,
2013-02-24 11:50:00,66.0,52.0,-100.00,East,85,5.0,13.0,61,0.00,,,0.12,743.000000,,2013-02-24 17:50:00,
2013-02-24 12:11:00,66.0,52.0,-100.00,East,85,5.0,13.0,61,0.00,,,0.12,743.000000,,2013-02-24 18:11:00,
2013-02-24 12:22:00,66.0,52.0,-100.00,East,85,5.0,13.0,61,0.00,,,0.12,743.000000,,2013-02-24 18:22:00,
2013-02-24 12:32:00,66.0,52.0,-100.00,East,85,5.0,13.0,61,0.00,,,0.12,743.000000,,2013-02-24 18:32:00,
2013-02-24 12:42:00,66.0,52.0,-100.00,East,85,5.0,13.0,61,0.00,,,0.12,743.000000,,2013-02-24 18:42:00,
2013-02-24 12:50:00,68.0,53.0,-100.00,East,96,6.0,12.0,58,0.00,,,0.12,722.000000,,2013-02-24 18:50:00,
2013-02-24 13:22:00,68.0,53.0,-100.00,East,96,6.0,12.0,58,0.00,,,0.12,722.000000,,2013-02-24 19:22:00,
2013-02-24 13:32:00,68.0,53.0,-100.00,East,96,6.0,12.0,58,0.00,,,0.12,722.000000,,2013-02-24 19:32:00,
2013-02-24 13:42:00,68.0,53.0,-100.00,East,96,6.0,12.0,58,0.00,,,0.12,722.000000,,2013-02-24 19:42:00,
2013-02-24 13:50:00,69.0,53.0,-100.00,SE,131,2.0,12.0,56,0.00,,,0.02,630.000000,,2013-02-24 19:50:00,
2013-02-24 14:11:00,69.0,53.0,-100.00,SE,131,2.0,12.0,56,0.00,,,0.02,630.000000,,2013-02-24 20:11:00,
2013-02-24 14:21:00,69.0,53.0,-100.00,SE,131,2.0,12.0,56,0.00,,,0.02,630.000000,,2013-02-24 20:21:00,
2013-02-24 14:32:00,69.0,53.0,-100.00,SE,131,2.0,12.0,56,0.00,,,0.02,630.000000,,2013-02-24 20:32:00,
2013-02-24 14:42:00,69.0,53.0,-100.00,SE,131,2.0,12.0,56,0.00,,,0.02,630.000000,,2013-02-24 20:42:00,
2013-02-24 14:50:00,67.0,54.0,-100.00,SSE,147,7.0,10.0,64,0.00,,,0.00,294.000000,,2013-02-24 20:50:00,
2013-02-24 15:21:00,67.0,54.0,-100.00,SSE,147,7.0,10.0,64,0.00,,,0.00,294.000000,,2013-02-24 21:21:00,
2013-02-24 15:32:00,67.0,54.0,-100.00,SSE,147,7.0,10.0,64,0.00,,,0.00,294.000000,,2013-02-24 21:32:00,
2013-02-24 15:42:00,67.0,54.0,-100.00,SSE,147,7.0,10.0,64,0.00,,,0.00,294.000000,,2013-02-24 21:42:00,
2013-02-24 15:50:00,67.0,55.0,-100.00,SE,135,3.0,10.0,65,0.00,,,0.00,139.000000,,2013-02-24 21:50:00,
2013-02-24 16:11:00,67.0,55.0,-100.00,SE,135,3.0,10.0,65,0.00,,,0.00,139.000000,,2013-02-24 22:11:00,
2013-02-24 16:21:00,67.0,55.0,-100.00,SE,135,3.0,10.0,65,0.00,,,0.00,139.000000,,2013-02-24 22:21:00,
2013-02-24 16:31:00,67.0,55.0,-100.00,SE,135,3.0,10.0,65,0.00,,,0.00,139.000000,,2013-02-24 22:31:00,
2013-02-24 16:41:00,67.0,55.0,-100.00,SE,135,3.0,10.0,65,0.00,,,0.00,139.000000,,2013-02-24 22:41:00,
2013-02-24 16:50:00,67.0,55.0,-100.00,East,98,5.0,9.0,65,0.00,,,0.00,68.000000,,2013-02-24 22:50:00,
2013-02-24 17:11:00,67.0,55.0,-100.00,East,98,5.0,9.0,65,0.00,,,0.00,68.000000,,2013-02-24 23:11:00,
2013-02-24 17:21:00,67.0,55.0,-100.00,East,98,5.0,9.0,65,0.00,,,0.00,68.000000,,2013-02-24 23:21:00,
2013-02-24 17:32:00,67.0,55.0,-100.00,East,98,5.0,9.0,65,0.00,,,0.00,68.000000,,2013-02-24 23:32:00,
2013-02-24 17:42:00,67.0,55.0,-100.00,East,98,5.0,9.0,65,0.00,,,0.00,68.000000,,2013-02-24 23:42:00,
2013-02-24 17:50:00,65.0,55.0,-100.00,ESE,103,6.0,11.0,71,0.00,,,0.00,15.000000,,2013-02-24 23:50:00,
2013-02-24 18:11:00,65.0,55.0,-100.00,ESE,103,6.0,11.0,71,0.00,,,0.00,15.000000,,2013-02-25 00:11:00,
2013-02-24 18:21:00,65.0,55.0,-100.00,ESE,103,6.0,11.0,71,0.00,,,0.00,15.000000,,2013-02-25 00:21:00,
2013-02-24 18:32:00,65.0,55.0,-100.00,ESE,103,6.0,11.0,71,0.00,,,0.00,15.000000,,2013-02-25 00:32:00,
2013-02-24 18:42:00,65.0,55.0,-100.00,ESE,103,6.0,11.0,71,0.00,,,0.00,15.000000,,2013-02-25 00:42:00,
2013-02-24 18:50:00,64.0,53.0,-100.00,East,93,6.0,10.0,67,0.00,,,0.00,0.000000,,2013-02-25 00:50:00,
2013-02-24 19:11:00,64.0,53.0,-100.00,East,93,6.0,10.0,67,0.00,,,0.00,0.000000,,2013-02-25 01:11:00,
2013-02-24 19:21:00,64.0,53.0,-100.00,East,93,6.0,10.0,67,0.00,,,0.00,0.000000,,2013-02-25 01:21:00,
2013-02-24 19:31:00,64.0,53.0,-100.00,East,93,6.0,10.0,67,0.00,,,0.00,0.000000,,2013-02-25 01:31:00,
2013-02-24 19:42:00,64.0,53.0,-100.00,East,93,6.0,10.0,67,0.00,,,0.00,0.000000,,2013-02-25 01:42:00,
2013-02-24 19:50:00,61.0,55.0,-100.00,East,88,6.0,10.0,80,0.05,,,0.05,0.000000,,2013-02-25 01:50:00,
2013-02-24 20:11:00,61.0,55.0,-100.00,East,88,6.0,10.0,80,0.05,,,0.05,0.000000,,2013-02-25 02:11:00,
2013-02-24 20:21:00,61.0,55.0,-100.00,East,88,6.0,10.0,80,0.05,,,0.05,0.000000,,2013-02-25 02:21:00,
2013-02-24 20:32:00,61.0,55.0,-100.00,East,88,6.0,10.0,80,0.05,,,0.05,0.000000,,2013-02-25 02:32:00,
2013-02-24 20:41:00,61.0,55.0,-100.00,East,88,6.0,10.0,80,0.05,,,0.05,0.000000,,2013-02-25 02:41:00,
2013-02-24 20:50:00,60.0,55.0,-100.00,East,99,5.0,10.0,83,0.09,,,0.14,0.000000,,2013-02-25 02:50:00,
2013-02-24 21:11:00,60.0,55.0,-100.00,East,99,5.0,10.0,83,0.09,,,0.14,0.000000,,2013-02-25 03:11:00,
2013-02-24 21:21:00,60.0,55.0,-100.00,East,99,5.0,10.0,83,0.09,,,0.14,0.000000,,2013-02-25 03:21:00,
2013-02-24 21:31:00,60.0,55.0,-100.00,East,99,5.0,10.0,83,0.09,,,0.14,0.000000,,2013-02-25 03:31:00,
2013-02-24 21:42:00,60.0,55.0,-100.00,East,99,5.0,10.0,83,0.09,,,0.14,0.000000,,2013-02-25 03:42:00,
2013-02-24 21:50:00,59.0,55.0,-100.00,East,92,5.0,13.0,88,0.06,,,0.20,0.000000,,2013-02-25 03:50:00,
2013-02-24 22:21:00,59.0,55.0,-100.00,East,92,5.0,13.0,88,0.06,,,0.20,0.000000,,2013-02-25 04:21:00,
2013-02-24 22:32:00,59.0,55.0,-100.00,East,92,5.0,13.0,88,0.06,,,0.20,0.000000,,2013-02-25 04:32:00,
2013-02-24 22:42:00,59.0,55.0,-100.00,East,92,5.0,13.0,88,0.06,,,0.20,0.000000,,2013-02-25 04:42:00,
2013-02-24 22:50:00,58.0,56.0,-100.00,NE,35,3.0,9.0,93,0.10,,,0.30,0.000000,,2013-02-25 04:50:00,
2013-02-24 23:22:00,58.0,56.0,-100.00,NE,35,3.0,9.0,93,0.10,,,0.30,0.000000,,2013-02-25 05:22:00,
2013-02-24 23:32:00,58.0,56.0,-100.00,NE,35,3.0,9.0,93,0.10,,,0.30,0.000000,,2013-02-25 05:32:00,
2013-02-24 23:42:00,58.0,56.0,-100.00,NE,35,3.0,9.0,93,0.10,,,0.30,0.000000,,2013-02-25 05:42:00,
2013-02-24 23:50:00,58.0,56.0,-100.00,NNE,23,2.0,9.0,94,0.06,,,0.36,0.000000,,2013-02-25 05:50:00,